Time;durP1;ratioP1;P1;durP2;ratioP2;P2;SDS_P1;SDS_P2;PMS_P1;PMS_P2;Temp;Humidity;BMP_temperature;BMP_pressure;BME280_temperature;BME280_humidity;BME280_pressure;Samples;Min_cycle;Max_cycle;Signal;HPM_P1;HPM_P2
2022/11/17 00:01:16;;;;;;;3.40;3.20;;;;;;;21.22;54.00;95913.63;4979653;28;20260;-93
2022/11/17 00:03:42;;;;;;;2.97;2.77;;;;;;;21.17;54.10;95899.13;4979111;28;20224;-92
2022/11/17 00:06:09;;;;;;;3.43;2.93;;;;;;;19.94;53.75;95677.19;4979863;28;20187;-92
2022/11/17 00:08:35;;;;;;;3.37;3.07;;;;;;;20.91;54.10;95852.13;4978345;28;20184;-93
2022/11/17 00:11:02;;;;;;;3.20;3.00;;;;;;;20.18;54.07;95710.50;4995288;28;20184;-93
2022/11/17 00:16:17;;;;;;;3.07;2.87;;;;;;;20.60;53.93;95796.66;4979412;28;20188;-93
2022/11/17 00:21:28;;;;;;;3.30;3.00;;;;;;;20.64;53.91;95798.38;4973365;28;20207;-93
2022/11/17 00:23:55;;;;;;;3.00;2.80;;;;;;;21.02;54.06;95870.97;4983867;28;20215;-92
2022/11/17 00:26:26;;;;;;;2.97;2.77;;;;;;;21.32;53.93;95927.31;4982279;28;20196;-92
2022/11/17 00:28:54;;;;;;;2.80;2.60;;;;;;;21.12;54.07;95886.34;4983700;28;20202;-93
2022/11/17 00:34:06;;;;;;;3.23;3.03;;;;;;;20.05;53.86;95703.59;4989706;28;20234;-92
2022/11/17 00:36:41;;;;;;;3.17;2.97;;;;;;;20.89;54.07;95836.81;4964367;28;20405;-91
2022/11/17 00:39:08;;;;;;;3.00;2.80;;;;;;;21.09;53.83;95876.09;4983167;28;20238;-93
2022/11/17 00:41:34;;;;;;;2.87;2.67;;;;;;;20.23;53.80;95728.38;4969390;28;20187;-92
2022/11/17 00:44:01;;;;;;;2.90;2.70;;;;;;;21.10;53.89;95872.69;4962528;28;20275;-91
2022/11/17 00:46:27;;;;;;;3.10;2.90;;;;;;;20.20;53.65;95718.16;4978582;28;20252;-93
2022/11/17 00:48:54;;;;;;;3.00;2.80;;;;;;;20.56;53.92;95777.91;4993859;28;20230;-93
2022/11/17 00:51:21;;;;;;;3.23;3.03;;;;;;;21.16;54.16;95884.63;4979479;28;20200;-93
2022/11/17 00:53:48;;;;;;;3.20;3.00;;;;;;;20.87;54.15;95841.03;4979142;28;20227;-93
2022/11/17 00:56:15;;;;;;;3.20;2.97;;;;;;;21.30;53.84;95906.00;4978379;28;20188;-93
2022/11/17 00:58:41;;;;;;;2.43;2.33;;;;;;;21.10;54.20;95876.94;4994103;28;20216;-94
2022/11/17 01:01:08;;;;;;;3.00;2.80;;;;;;;21.00;54.11;95853.06;4989405;28;20183;-93
2022/11/17 01:03:35;;;;;;;3.00;2.80;;;;;;;20.62;53.94;95782.19;4993878;28;20719;-93
2022/11/17 01:06:06;;;;;;;2.80;2.60;;;;;;;20.76;53.85;95803.53;4993526;28;20185;-91
2022/11/17 01:08:33;;;;;;;3.00;2.80;;;;;;;20.24;54.01;95724.97;4978330;28;20252;-93
2022/11/17 01:11:05;;;;;;;3.03;2.83;;;;;;;21.26;54.03;95889.78;4978106;28;20243;-93
2022/11/17 01:13:31;;;;;;;3.00;2.80;;;;;;;20.49;54.05;95767.66;4993727;28;20221;-93
2022/11/17 01:16:09;;;;;;;3.10;2.87;;;;;;;20.60;54.12;95782.19;4983227;28;20188;-93
2022/11/17 01:18:35;;;;;;;2.60;2.40;;;;;;;21.32;53.71;95905.16;4992496;28;20211;-93
2022/11/17 01:21:13;;;;;;;3.10;2.90;;;;;;;20.52;54.05;95772.78;4993623;28;20191;-93
2022/11/17 01:23:40;;;;;;;3.10;2.90;;;;;;;21.07;53.98;95865.03;4985493;28;20218;-93
2022/11/17 01:26:11;;;;;;;2.93;2.73;;;;;;;20.82;53.86;95829.97;4993800;28;20260;-93
2022/11/17 01:28:38;;;;;;;3.03;2.83;;;;;;;19.93;53.81;95665.28;4980819;28;20235;-93
2022/11/17 01:31:12;;;;;;;2.67;2.47;;;;;;;20.78;53.78;95807.81;4978596;28;20216;-93
2022/11/17 01:33:39;;;;;;;2.80;2.60;;;;;;;21.05;53.82;95843.72;4987724;28;20223;-94
2022/11/17 01:36:07;;;;;;;2.67;2.47;;;;;;;19.61;53.72;95601.38;4993462;28;20224;-91
2022/11/17 01:38:34;;;;;;;3.00;2.80;;;;;;;21.33;53.71;95891.53;4987768;28;20205;-93
2022/11/17 01:41:02;;;;;;;3.07;2.87;;;;;;;20.38;54.16;95724.25;4980843;28;20299;-92
2022/11/17 01:43:35;;;;;;;2.80;2.60;;;;;;;20.76;53.74;95781.44;4993316;28;20262;-93
2022/11/17 01:46:03;;;;;;;2.67;2.47;;;;;;;20.48;54.08;95742.97;4978884;28;20201;-93
2022/11/17 01:48:29;;;;;;;2.93;2.60;;;;;;;19.82;53.96;95621.91;4992946;28;20264;-93
2022/11/17 01:50:56;;;;;;;2.70;2.50;;;;;;;21.09;54.13;95829.25;4976198;28;20217;-93
2022/11/17 01:53:22;;;;;;;3.23;3.03;;;;;;;21.31;54.07;95869.38;4981707;28;20224;-92
2022/11/17 01:55:56;;;;;;;2.70;2.50;;;;;;;20.86;54.23;95795.94;4985650;28;20204;-93
2022/11/17 01:58:27;;;;;;;2.90;2.70;;;;;;;19.94;54.21;95638.94;4993264;28;20247;-93
2022/11/17 02:00:54;;;;;;;2.80;2.60;;;;;;;20.88;53.95;95795.94;4990053;28;20195;-92
2022/11/17 02:03:20;;;;;;;2.43;2.27;;;;;;;20.37;53.71;95706.38;4993340;28;20200;-93
2022/11/17 02:05:56;;;;;;;2.70;2.50;;;;;;;20.64;53.76;95749.88;4978055;28;20188;-93
2022/11/17 02:08:24;;;;;;;3.10;2.90;;;;;;;20.51;53.92;95715.78;4983394;28;20200;-92
2022/11/17 02:10:51;;;;;;;2.80;2.60;;;;;;;20.82;53.86;95770.38;4974299;28;20248;-93
2022/11/17 02:13:19;;;;;;;2.77;2.57;;;;;;;20.88;53.98;95772.97;4984806;28;20345;-93
2022/11/17 02:15:45;;;;;;;3.10;2.90;;;;;;;21.32;53.82;95846.38;4985206;28;20231;-93
2022/11/17 02:18:12;;;;;;;3.07;2.87;;;;;;;20.62;53.65;95734.56;4973876;28;20185;-92
2022/11/17 02:21:21;;;;;;;2.77;2.57;;;;;;;20.88;53.99;95776.38;4977546;28;20275;-92
2022/11/17 02:23:50;;;;;;;2.87;2.67;;;;;;;21.33;53.94;95843.00;4976852;28;20240;-93
2022/11/17 02:26:32;;;;;;;2.80;2.60;;;;;;;21.32;53.72;95833.59;4978179;28;20215;-93
2022/11/17 02:29:23;;;;;;;3.20;2.73;;;;;;;21.32;53.97;95833.59;4991860;28;20207;-92
2022/11/17 02:31:54;;;;;;;3.03;2.73;;;;;;;21.32;53.96;95836.16;4994190;28;20184;-93
2022/11/17 02:34:33;;;;;;;3.13;2.93;;;;;;;20.18;54.06;95630.59;4988696;28;20208;-92
2022/11/17 02:37:29;;;;;;;3.27;2.97;;;;;;;21.31;53.98;95816.56;4980702;28;20184;-93
2022/11/17 02:40:12;;;;;;;2.80;2.60;;;;;;;21.31;53.82;95836.16;4980648;28;20236;-92
2022/11/17 02:45:39;;;;;;;2.77;2.57;;;;;;;21.01;53.81;95754.31;4979020;28;20243;-92
2022/11/17 02:48:10;;;;;;;2.63;2.43;;;;;;;20.24;54.31;95628.06;4980387;28;20253;-90
2022/11/17 02:50:37;;;;;;;2.80;2.60;;;;;;;20.31;54.00;95653.59;4980867;28;20208;-92
2022/11/17 02:53:03;;;;;;;2.70;2.50;;;;;;;20.57;53.88;95685.19;4996734;28;20243;-93
2022/11/17 02:55:33;;;;;;;2.73;2.53;;;;;;;20.84;54.11;95722.75;4988101;28;20195;-92
2022/11/17 02:58:00;;;;;;;2.77;2.57;;;;;;;20.89;54.00;95732.13;4995870;28;20220;-92
2022/11/17 03:00:27;;;;;;;2.73;2.53;;;;;;;20.20;54.29;95622.13;4995374;28;20208;-91
2022/11/17 03:03:02;;;;;;;2.50;2.33;;;;;;;20.87;53.74;95731.25;4980193;28;20187;-93
2022/11/17 03:05:32;;;;;;;2.90;2.70;;;;;;;21.32;53.91;95802.13;4980275;28;20191;-92
2022/11/17 03:08:12;;;;;;;2.90;2.70;;;;;;;21.32;53.80;95794.44;4980284;28;20204;-91
2022/11/17 03:10:57;;;;;;;2.67;2.47;;;;;;;21.32;53.71;95779.13;4996177;28;20203;-93
2022/11/17 03:13:31;;;;;;;3.07;2.87;;;;;;;20.74;53.71;95683.56;4979243;28;20204;-90
2022/11/17 03:16:20;;;;;;;2.90;2.70;;;;;;;21.32;53.77;95774.84;4971496;28;20441;-93
2022/11/17 03:19:09;;;;;;;3.07;2.87;;;;;;;21.31;53.87;95755.25;4989344;28;20208;-93
2022/11/17 03:21:39;;;;;;;2.70;2.50;;;;;;;20.68;53.69;95658.03;4995907;28;20194;-93
2022/11/17 03:24:17;;;;;;;2.80;2.60;;;;;;;20.84;53.68;95677.63;4995507;28;20267;-90
2022/11/17 03:26:49;;;;;;;2.60;2.40;;;;;;;21.11;53.96;95733.09;4995522;28;20267;-93
2022/11/17 03:29:17;;;;;;;2.80;2.60;;;;;;;19.90;53.81;95536.09;4979726;28;20260;-93
2022/11/17 03:31:44;;;;;;;2.70;2.50;;;;;;;20.48;53.83;95620.50;4987975;28;20248;-92
2022/11/17 03:34:13;;;;;;;2.50;2.30;;;;;;;20.88;53.75;95679.38;4972309;28;20230;-91
2022/11/17 03:36:42;;;;;;;2.53;2.33;;;;;;;20.60;53.87;95641.00;4982975;28;20215;-94
2022/11/17 03:39:22;;;;;;;2.87;2.67;;;;;;;20.63;53.88;95625.69;4973667;28;20272;-92
2022/11/17 03:41:50;;;;;;;3.00;2.80;;;;;;;19.92;53.79;95501.28;4980498;28;20183;-93
2022/11/17 03:44:16;;;;;;;2.70;2.50;;;;;;;19.90;53.78;95490.22;4995189;28;20295;-93
2022/11/17 03:46:43;;;;;;;2.53;2.40;;;;;;;20.85;53.89;95658.06;4980114;28;20190;-92
2022/11/17 03:49:28;;;;;;;2.70;2.50;;;;;;;21.30;53.72;95722.03;4995188;28;20204;-94
2022/11/17 03:51:55;;;;;;;2.80;2.60;;;;;;;20.46;53.74;95572.03;4979808;28;20204;-93
2022/11/17 03:54:21;;;;;;;3.03;2.80;;;;;;;20.64;53.75;95605.28;4984886;28;20204;-93
2022/11/17 03:56:56;;;;;;;2.73;2.53;;;;;;;20.05;53.59;95496.22;4987632;28;20211;-93
2022/11/17 03:59:29;;;;;;;3.13;2.93;;;;;;;21.31;53.70;95709.28;4977789;28;20238;-93
2022/11/17 04:01:55;;;;;;;2.80;2.60;;;;;;;21.07;53.75;95673.47;4978943;28;20257;-94
2022/11/17 04:04:22;;;;;;;2.90;2.70;;;;;;;19.92;53.53;95469.84;4995423;28;20271;-92
2022/11/17 04:07:18;;;;;;;2.90;2.70;;;;;;;20.69;53.73;95592.53;4966587;28;20171;-92
2022/11/17 04:09:45;;;;;;;3.10;2.80;;;;;;;20.23;53.84;95552.41;4960013;28;20172;-93
2022/11/17 04:17:58;;;;;;;2.80;2.60;;;;;;;18.84;54.12;95286.03;5025016;28;20206;-89
2022/11/17 04:20:39;;;;;;;2.67;2.47;;;;;;;21.18;53.75;95661.56;5024305;28;20194;-90
2022/11/17 04:23:24;;;;;;;2.90;2.70;;;;;;;20.66;53.65;95561.91;5005183;28;20230;-89
2022/11/17 04:29:04;;;;;;;2.80;2.60;;;;;;;18.31;53.73;95152.66;5038466;28;20573;-90
2022/11/17 04:31:31;;;;;;;2.60;2.40;;;;;;;19.68;53.70;95408.59;5038732;28;20182;-89
2022/11/17 04:34:14;;;;;;;3.00;2.80;;;;;;;21.30;53.89;95661.59;5019049;28;20206;-91
2022/11/17 04:36:44;;;;;;;2.70;2.50;;;;;;;19.66;53.89;95413.69;5002845;28;20182;-88
2022/11/17 04:39:12;;;;;;;2.90;2.70;;;;;;;19.53;53.86;95362.69;5003131;28;20203;-91
2022/11/17 04:41:55;;;;;;;2.97;2.77;;;;;;;19.80;53.93;95406.09;5023822;28;20174;-89
2022/11/17 04:44:24;;;;;;;2.63;2.43;;;;;;;20.78;53.64;95567.00;5007562;28;20210;-90
2022/11/17 04:46:51;;;;;;;2.40;2.20;;;;;;;19.61;54.09;95366.13;5006320;28;20174;-90
2022/11/17 04:49:19;;;;;;;2.30;2.20;;;;;;;19.37;53.79;95315.13;5077973;22;20261;-88
2022/11/17 04:52:00;;;;;;;2.80;2.60;;;;;;;18.81;54.02;95250.41;5010314;28;20225;-89
2022/11/17 04:54:29;;;;;;;2.83;2.63;;;;;;;19.57;53.89;95349.97;5020968;28;20194;-91
2022/11/17 04:56:57;;;;;;;2.70;2.50;;;;;;;19.44;53.82;95343.16;5022565;28;20186;-91
2022/11/17 04:59:39;;;;;;;3.00;2.70;;;;;;;21.16;53.75;95641.97;5022619;28;20216;-91
2022/11/17 05:02:20;;;;;;;2.80;2.60;;;;;;;18.90;53.54;95286.06;5022694;28;20190;-90
2022/11/17 05:04:56;;;;;;;2.83;2.63;;;;;;;19.75;53.61;95435.81;4991734;28;20247;-91
2022/11/17 05:07:23;;;;;;;2.70;2.50;;;;;;;19.84;53.88;95466.44;4984319;28;20478;-91
2022/11/17 05:09:50;;;;;;;2.90;2.70;;;;;;;18.96;53.71;95309.00;4992899;28;20175;-89
2022/11/17 05:15:04;;;;;;;2.60;2.40;;;;;;;19.55;53.91;95437.44;5005312;28;20190;-89
2022/11/17 05:17:31;;;;;;;2.47;2.27;;;;;;;21.31;54.00;95718.63;5018699;28;20178;-89
2022/11/17 05:20:23;;;;;;;2.60;2.40;;;;;;;21.24;53.73;95688.81;4984003;28;20207;-88
2022/11/17 05:25:53;;;;;;;2.73;2.50;;;;;;;20.15;53.86;95544.72;4998999;28;20175;-89
2022/11/17 05:28:21;;;;;;;2.90;2.70;;;;;;;19.50;53.72;95434.00;4986395;28;20202;-90
2022/11/17 05:30:48;;;;;;;2.40;2.20;;;;;;;20.04;53.96;95531.06;5002248;28;20183;-92
2022/11/17 05:33:15;;;;;;;2.60;2.40;;;;;;;19.85;53.79;95497.03;5002388;28;20231;-91
2022/11/17 05:35:44;;;;;;;2.80;2.60;;;;;;;19.37;53.69;95435.66;4985987;28;20210;-89
2022/11/17 05:38:28;;;;;;;2.90;2.70;;;;;;;21.28;53.67;95744.16;5001521;28;20237;-90
2022/11/17 05:40:57;;;;;;;2.63;2.43;;;;;;;19.01;53.86;95353.13;4983802;28;20238;-90
2022/11/17 05:43:25;;;;;;;2.70;2.50;;;;;;;19.60;53.89;95456.97;4975168;28;20209;-90
2022/11/17 05:45:52;;;;;;;3.20;2.90;;;;;;;18.71;53.70;95315.66;4998973;28;20183;-92
2022/11/17 05:48:19;;;;;;;2.67;2.47;;;;;;;18.66;53.36;95299.53;5001428;28;20179;-89
2022/11/17 05:50:46;;;;;;;2.63;2.43;;;;;;;18.33;53.76;95237.41;4985883;28;20209;-90
2022/11/17 05:57:09;;;;;;;2.40;2.30;;;;;;;18.44;53.48;95249.38;5018230;28;20301;-92
2022/11/17 05:59:47;;;;;;;2.50;2.30;;;;;;;20.17;53.82;95552.38;4994076;28;20274;-92
2022/11/17 06:02:25;;;;;;;2.40;2.20;;;;;;;19.07;53.72;95370.97;4993794;28;20226;-93
2022/11/17 06:04:52;;;;;;;2.30;2.20;;;;;;;20.93;53.97;95715.13;5001483;28;20250;-91
2022/11/17 06:07:18;;;;;;;2.50;2.30;;;;;;;19.09;53.95;95389.63;4995691;28;20202;-92
2022/11/17 06:09:45;;;;;;;2.60;2.40;;;;;;;18.81;53.80;95344.53;4974942;28;20584;-90
2022/11/17 06:12:14;;;;;;;2.37;2.17;;;;;;;18.74;53.85;95327.56;4979054;28;20203;-90
2022/11/17 06:14:41;;;;;;;3.50;2.60;;;;;;;19.52;53.83;95466.31;5012639;28;20227;-92
2022/11/17 06:17:24;;;;;;;2.93;2.63;;;;;;;19.34;53.96;95420.38;4981318;28;20210;-92
2022/11/17 06:19:55;;;;;;;8.63;2.70;;;;;;;19.84;53.90;95485.09;4982004;28;20203;-92
2022/11/17 06:22:24;;;;;;;2.50;2.30;;;;;;;19.77;53.92;95501.22;5020649;28;20241;-92
2022/11/17 06:24:50;;;;;;;3.90;2.77;;;;;;;20.23;54.15;95543.06;5008376;28;20222;-91
2022/11/17 06:27:17;;;;;;;3.40;3.10;;;;;;;20.18;53.83;95531.13;4986591;28;20226;-92
2022/11/17 06:29:44;;;;;;;5.80;3.77;;;;;;;20.40;53.39;95573.72;4995418;28;20275;-92
2022/11/17 06:32:14;;;;;;;6.33;4.43;;;;;;;20.18;52.69;95509.03;4989027;28;20208;-92
2022/11/17 06:34:41;;;;;;;5.93;4.70;;;;;;;20.91;52.40;95625.75;5001341;28;20306;-93
2022/11/17 06:37:10;;;;;;;5.97;4.97;;;;;;;20.74;51.34;95601.03;5003370;28;20200;-94
2022/11/17 06:39:36;;;;;;;5.93;5.00;;;;;;;20.83;50.72;95637.63;4998903;28;20218;-92
2022/11/17 06:42:03;;;;;;;6.83;5.20;;;;;;;21.05;50.40;95666.66;5014727;28;20191;-92
2022/11/17 06:44:29;;;;;;;5.17;4.63;;;;;;;20.15;49.44;95524.34;4998636;28;20223;-92
2022/11/17 06:46:56;;;;;;;6.90;4.90;;;;;;;20.60;49.29;95589.94;5028725;28;20189;-95
2022/11/17 06:49:23;;;;;;;6.17;4.70;;;;;;;20.12;48.99;95503.03;5009570;28;20190;-93
2022/11/17 06:51:49;;;;;;;5.43;4.90;;;;;;;20.32;49.16;95542.25;5018573;28;20259;-92
2022/11/17 06:54:16;;;;;;;5.57;5.07;;;;;;;20.44;48.67;95581.41;5008212;28;20223;-94
2022/11/17 06:56:43;;;;;;;6.90;4.70;;;;;;;20.05;49.08;95519.16;5001848;28;20215;-93
2022/11/17 06:59:09;;;;;;;5.00;4.50;;;;;;;20.59;49.13;95606.94;5019213;28;20195;-92
2022/11/17 07:01:36;;;;;;;5.00;4.60;;;;;;;21.07;49.57;95687.94;5009583;28;20195;-91
2022/11/17 07:04:03;;;;;;;5.33;4.60;;;;;;;20.79;50.04;95640.19;4983455;28;20226;-90
2022/11/17 07:06:30;;;;;;;5.63;4.40;;;;;;;21.02;50.15;95666.66;4981616;28;20195;-90
2022/11/17 07:08:57;;;;;;;5.07;4.53;;;;;;;20.78;50.42;95635.94;4963364;28;20668;-90
2022/11/17 07:11:23;;;;;;;5.20;4.40;;;;;;;20.92;50.29;95667.44;4989610;28;20318;-90
2022/11/17 07:13:50;;;;;;;4.60;4.20;;;;;;;21.18;50.76;95714.34;4978862;28;20654;-91
2022/11/17 07:16:18;;;;;;;4.77;4.27;;;;;;;20.71;50.64;95639.31;4994900;28;20227;-90
2022/11/17 07:18:49;;;;;;;4.10;3.80;;;;;;;20.81;50.74;95679.34;4976426;28;20199;-90
2022/11/17 07:21:16;;;;;;;6.63;4.60;;;;;;;21.28;50.17;95742.47;4982079;28;20220;-91
2022/11/17 07:23:44;;;;;;;10.57;5.60;;;;;;;21.22;48.76;95728.81;4971764;28;20720;-93
2022/11/17 07:26:11;;;;;;;8.73;6.07;;;;;;;20.79;47.91;95647.84;4998675;28;20190;-93
2022/11/17 07:28:38;;;;;;;5.70;5.20;;;;;;;20.48;48.46;95595.84;4998560;28;20179;-94
2022/11/17 07:31:06;;;;;;;5.57;5.07;;;;;;;20.65;48.85;95622.28;5009463;28;20207;-93
2022/11/17 07:33:33;;;;;;;8.00;5.00;;;;;;;20.20;49.36;95525.22;4996518;28;20318;-92
2022/11/17 07:36:04;;;;;;;5.30;4.60;;;;;;;19.61;49.81;95463.78;5000914;28;20202;-92
2022/11/17 07:38:32;;;;;;;5.50;4.80;;;;;;;18.68;49.99;95286.81;5015404;28;20206;-94
2022/11/17 07:40:59;;;;;;;7.37;4.70;;;;;;;20.47;50.20;95583.09;4992256;28;20243;-96
2022/11/17 07:43:26;;;;;;;5.47;4.53;;;;;;;19.52;50.43;95425.56;5008183;28;20203;-91
2022/11/17 07:45:53;;;;;;;6.43;4.13;;;;;;;20.45;50.63;95613.69;4980283;28;20627;-92
2022/11/17 07:48:20;;;;;;;4.73;4.23;;;;;;;20.25;50.85;95541.34;4992200;28;20194;-94
2022/11/17 07:50:46;;;;;;;4.93;4.53;;;;;;;21.17;50.91;95692.22;5013445;28;20195;-94
2022/11/17 07:53:13;;;;;;;4.70;4.20;;;;;;;20.66;50.95;95601.00;4997868;28;20231;-94
2022/11/17 07:55:40;;;;;;;5.93;4.17;;;;;;;20.72;50.95;95624.00;5004230;28;20183;-94
2022/11/17 07:58:07;;;;;;;6.67;4.40;;;;;;;21.14;51.21;95698.16;4983194;28;20192;-93
2022/11/17 08:00:33;;;;;;;4.40;4.00;;;;;;;20.89;51.24;95645.31;5006583;28;20218;-93
2022/11/17 08:03:02;;;;;;;4.03;3.63;;;;;;;20.79;51.24;95655.50;5009934;28;20230;-93
2022/11/17 08:05:30;;;;;;;7.17;4.67;;;;;;;19.32;50.97;95408.47;5018275;28;20184;-94
2022/11/17 08:07:57;;;;;;;7.17;4.73;;;;;;;21.03;50.25;95697.31;4991044;28;20199;-90
2022/11/17 08:10:25;;;;;;;4.87;4.37;;;;;;;20.89;49.82;95670.84;5006146;28;20245;-92
2022/11/17 08:12:53;;;;;;;4.93;4.43;;;;;;;20.66;50.66;95633.34;5015152;28;20203;-92
2022/11/17 08:15:21;;;;;;;5.77;4.43;;;;;;;21.34;50.67;95741.63;4994077;28;20188;-93
2022/11/17 08:17:52;;;;;;;4.27;3.87;;;;;;;20.53;50.69;95606.06;5011020;28;20199;-92
2022/11/17 08:20:19;;;;;;;4.60;3.90;;;;;;;20.48;50.80;95595.84;4991020;28;20238;-90
2022/11/17 08:22:45;;;;;;;5.00;4.10;;;;;;;19.95;50.96;95497.88;4993898;28;20235;-89
2022/11/17 08:25:12;;;;;;;4.20;3.63;;;;;;;19.87;51.01;95507.22;4972886;28;20210;-91
2022/11/17 08:27:41;;;;;;;3.90;3.50;;;;;;;19.04;51.32;95348.06;4989668;28;20656;-93
2022/11/17 08:30:08;;;;;;;5.70;4.30;;;;;;;21.36;51.23;95742.50;4993251;28;20183;-91
2022/11/17 08:32:36;;;;;;;4.23;3.60;;;;;;;20.89;51.14;95673.41;4975572;28;20191;-92
2022/11/17 08:35:04;;;;;;;5.30;4.80;;;;;;;20.58;50.22;95610.38;5007984;28;20567;-93
2022/11/17 08:37:31;;;;;;;10.50;4.60;;;;;;;19.73;49.10;95468.06;4976084;28;20186;-93
2022/11/17 08:39:57;;;;;;;5.70;4.77;;;;;;;19.81;48.34;95481.72;5002938;28;20227;-93
2022/11/17 08:42:24;;;;;;;7.23;5.30;;;;;;;20.46;48.27;95586.50;4992264;28;20207;-93
2022/11/17 08:44:51;;;;;;;5.80;5.20;;;;;;;19.20;47.29;95375.28;5013200;28;20242;-93
2022/11/17 08:47:17;;;;;;;8.07;5.10;;;;;;;20.16;48.50;95553.25;4987946;28;20203;-93
2022/11/17 08:49:44;;;;;;;5.63;4.67;;;;;;;20.34;49.03;95577.09;4998496;28;20182;-93
2022/11/17 08:52:11;;;;;;;5.23;4.73;;;;;;;19.72;48.95;95466.38;5012089;28;20222;-93
2022/11/17 08:54:37;;;;;;;7.23;4.60;;;;;;;19.05;49.23;95337.88;5014191;28;20211;-94
2022/11/17 08:57:04;;;;;;;5.53;4.67;;;;;;;19.90;49.32;95490.22;4965892;28;20700;-92
2022/11/17 08:59:31;;;;;;;5.43;3.93;;;;;;;21.23;49.49;95717.78;4980093;28;20199;-92
2022/11/17 09:01:57;;;;;;;5.13;3.80;;;;;;;20.73;50.26;95620.59;5019043;28;20253;-92
2022/11/17 09:04:24;;;;;;;6.03;4.10;;;;;;;20.96;49.85;95654.72;5026083;28;20202;-93
2022/11/17 09:06:50;;;;;;;4.83;4.10;;;;;;;20.89;50.45;95635.09;5002561;28;20210;-95
2022/11/17 09:09:17;;;;;;;4.97;4.20;;;;;;;21.17;49.88;95687.94;4989967;28;20180;-93
2022/11/17 09:11:44;;;;;;;4.97;4.03;;;;;;;21.26;50.04;95716.06;4997039;28;20184;-94
2022/11/17 09:14:10;;;;;;;4.67;3.70;;;;;;;21.18;50.16;95696.47;5011737;28;20438;-92
2022/11/17 09:16:37;;;;;;;4.13;3.70;;;;;;;21.10;50.61;95676.03;5014030;28;20183;-93
2022/11/17 09:19:04;;;;;;;4.50;4.00;;;;;;;20.79;50.55;95633.38;5006288;28;20950;-94
2022/11/17 09:21:32;;;;;;;6.10;3.70;;;;;;;21.11;50.77;95684.56;4980012;28;20222;-92
2022/11/17 09:23:59;;;;;;;4.30;3.90;;;;;;;21.24;50.63;95699.03;5011534;28;20214;-91
2022/11/17 09:26:25;;;;;;;5.63;3.80;;;;;;;21.10;50.95;95665.81;4995185;28;20175;-94
2022/11/17 09:28:52;;;;;;;4.93;3.80;;;;;;;20.49;50.87;95561.00;4994642;28;20266;-91
2022/11/17 09:31:20;;;;;;;6.37;3.70;;;;;;;20.07;51.07;95494.53;4995113;28;20187;-95
2022/11/17 09:33:47;;;;;;;3.77;3.37;;;;;;;19.79;51.49;95465.56;4980619;28;20222;-93
2022/11/17 09:36:14;;;;;;;3.70;3.40;;;;;;;19.85;51.37;95466.44;4979356;28;20270;-93
2022/11/17 09:38:41;;;;;;;7.43;3.13;;;;;;;19.41;51.53;95405.94;4977342;28;20191;-93
2022/11/17 09:41:27;;;;;;;4.00;3.47;;;;;;;19.80;51.47;95462.16;4982852;28;20214;-93
2022/11/17 09:44:18;;;;;;;4.70;3.23;;;;;;;21.33;51.51;95727.16;4986483;28;20202;-95
2022/11/17 09:47:19;;;;;;;4.67;3.13;;;;;;;21.32;51.44;95740.78;5014346;28;20233;-95
2022/11/17 09:50:02;;;;;;;5.23;3.20;;;;;;;19.29;51.40;95423.72;5009192;28;20217;-94
2022/11/17 09:52:55;;;;;;;3.80;2.83;;;;;;;21.33;51.39;95745.91;4986188;28;20222;-95
2022/11/17 09:55:37;;;;;;;4.37;3.00;;;;;;;19.58;51.51;95484.16;5010353;28;20240;-95
2022/11/17 09:58:10;;;;;;;5.80;3.07;;;;;;;20.53;51.67;95641.78;4982798;28;20206;-94
2022/11/17 10:00:37;;;;;;;3.63;3.10;;;;;;;19.81;51.31;95530.97;5001397;28;20233;-94
2022/11/17 10:03:22;;;;;;;4.10;3.00;;;;;;;20.78;51.78;95685.28;4982258;28;20199;-94
2022/11/17 10:05:49;;;;;;;3.27;2.90;;;;;;;20.34;52.00;95610.25;4999535;28;20267;-92
2022/11/17 10:08:17;;;;;;;3.80;3.00;;;;;;;20.09;51.78;95580.38;4999788;28;20668;-91
2022/11/17 10:10:49;;;;;;;3.77;2.97;;;;;;;20.41;51.78;95650.28;5016321;28;20237;-92
2022/11/17 10:13:31;;;;;;;3.10;2.80;;;;;;;21.31;51.54;95793.59;5008266;28;20209;-92
2022/11/17 10:16:11;;;;;;;3.60;2.83;;;;;;;20.81;51.76;95659.75;5011774;28;20198;-90
2022/11/17 10:18:37;;;;;;;3.13;2.87;;;;;;;20.83;51.87;95662.31;4993563;28;20254;-90
2022/11/17 10:21:05;;;;;;;3.77;3.03;;;;;;;21.32;52.04;95730.56;5015013;28;20215;-92
2022/11/17 10:23:37;;;;;;;3.00;2.70;;;;;;;20.35;51.86;95570.31;5011065;28;20206;-91
2022/11/17 10:26:12;;;;;;;3.70;3.10;;;;;;;20.88;51.89;95658.94;4996853;28;20187;-92
2022/11/17 10:28:39;;;;;;;3.70;2.70;;;;;;;20.92;51.90;95649.56;4995870;28;20214;-91
2022/11/17 10:31:13;;;;;;;2.80;2.60;;;;;;;20.49;51.97;95596.72;5012118;28;20217;-91
2022/11/17 10:33:48;;;;;;;2.93;2.63;;;;;;;20.82;52.06;95655.50;5013225;28;20266;-91
2022/11/17 10:36:28;;;;;;;2.67;2.43;;;;;;;20.89;52.01;95662.31;5013512;28;20186;-91
2022/11/17 10:38:55;;;;;;;3.93;2.67;;;;;;;21.13;52.04;95708.38;5008830;28;20187;-91
2022/11/17 10:41:26;;;;;;;3.80;2.77;;;;;;;21.01;51.85;95704.09;4998201;28;20230;-90
2022/11/17 10:43:55;;;;;;;3.30;2.70;;;;;;;21.28;51.89;95750.16;5028722;28;20274;-91
2022/11/17 10:46:22;;;;;;;3.53;2.60;;;;;;;20.91;52.14;95683.63;5013954;28;20222;-90
2022/11/17 10:48:53;;;;;;;3.93;2.93;;;;;;;20.56;52.04;95619.69;5012094;28;20218;-90
2022/11/17 10:51:19;;;;;;;4.37;2.80;;;;;;;21.35;52.35;95725.47;5004332;28;20191;-91
2022/11/17 10:54:09;;;;;;;4.13;2.77;;;;;;;21.30;52.28;95724.59;5013811;28;20262;-92
2022/11/17 10:56:43;;;;;;;3.13;2.83;;;;;;;20.70;52.26;95638.47;5024567;28;20203;-91
2022/11/17 10:59:25;;;;;;;4.63;2.53;;;;;;;21.35;52.25;95745.91;5010511;28;20202;-89
2022/11/17 11:01:52;;;;;;;3.77;2.67;;;;;;;20.78;52.53;95644.44;5028095;28;20222;-91
2022/11/17 11:04:45;;;;;;;3.40;2.33;;;;;;;20.15;52.41;95528.56;5000546;28;20244;-91
2022/11/17 11:07:21;;;;;;;2.90;2.37;;;;;;;20.92;52.31;95660.63;4996458;28;20179;-91
2022/11/17 11:09:53;;;;;;;3.43;2.50;;;;;;;20.38;52.53;95573.72;5009657;28;20337;-91
2022/11/17 11:12:35;;;;;;;3.77;2.40;;;;;;;20.46;52.28;95578.84;5018802;28;20191;-91
2022/11/17 11:15:02;;;;;;;2.80;2.23;;;;;;;20.86;52.54;95624.03;5016242;28;20551;-90
2022/11/17 11:17:28;;;;;;;4.23;2.50;;;;;;;20.14;52.49;95502.25;5013341;28;20263;-90
2022/11/17 11:19:55;;;;;;;3.20;2.30;;;;;;;20.86;52.53;95635.09;5030178;28;20207;-91
2022/11/17 11:22:51;;;;;;;3.40;2.33;;;;;;;21.35;52.45;95710.97;5014593;28;20210;-91
2022/11/17 11:25:30;;;;;;;3.40;2.60;;;;;;;21.35;52.62;95689.69;5013949;28;20192;-91
2022/11/17 11:28:18;;;;;;;3.60;2.37;;;;;;;20.77;52.41;95598.47;5013378;28;20195;-89
2022/11/17 11:31:05;;;;;;;2.73;2.37;;;;;;;21.35;52.48;95674.38;4997893;28;20207;-91
2022/11/17 11:33:35;;;;;;;2.73;2.27;;;;;;;20.31;52.77;95517.59;5022834;28;20207;-91
2022/11/17 11:36:13;;;;;;;3.87;2.47;;;;;;;21.35;52.53;95693.09;4992369;28;20191;-91
2022/11/17 11:38:53;;;;;;;3.10;2.30;;;;;;;20.69;52.74;95600.19;5008874;28;20206;-91
2022/11/17 11:41:26;;;;;;;2.63;2.40;;;;;;;21.35;52.76;95694.81;5016317;28;20223;-91
2022/11/17 11:44:11;;;;;;;2.70;2.23;;;;;;;21.34;52.63;95686.28;5011533;28;20234;-91
2022/11/17 11:47:35;;;;;;;2.90;2.20;;;;;;;21.34;52.88;95703.31;5012437;28;20187;-91
2022/11/17 11:50:08;;;;;;;2.93;2.50;;;;;;;20.07;53.13;95489.44;5007219;28;20262;-91
2022/11/17 11:52:37;;;;;;;3.90;2.10;;;;;;;20.77;52.93;95604.44;4979281;28;20199;-92
2022/11/17 11:55:29;;;;;;;2.70;2.30;;;;;;;20.57;52.85;95572.09;4984657;28;20213;-90
2022/11/17 11:58:17;;;;;;;2.50;2.10;;;;;;;21.33;52.88;95689.69;5004180;28;20195;-89
2022/11/17 12:00:44;;;;;;;4.83;2.60;;;;;;;20.95;53.05;95636.84;5009281;28;20230;-91
2022/11/17 12:03:22;;;;;;;2.30;2.10;;;;;;;21.34;52.86;95696.50;4994342;28;20211;-90
2022/11/17 12:09:21;;;;;;;2.50;2.03;;;;;;;21.35;52.65;95684.59;5001557;28;20203;-91
2022/11/17 12:12:00;;;;;;;3.13;2.23;;;;;;;21.20;52.80;95651.34;4994734;28;20351;-91
2022/11/17 12:14:34;;;;;;;2.27;2.07;;;;;;;21.35;52.69;95670.09;4988860;28;20285;-91
2022/11/17 12:17:22;;;;;;;2.10;1.87;;;;;;;20.88;52.78;95591.69;5009219;28;20206;-90
2022/11/17 12:20:01;;;;;;;3.57;1.83;;;;;;;19.89;52.70;95422.25;4998160;28;20233;-91
2022/11/17 12:22:35;;;;;;;2.80;2.30;;;;;;;21.35;52.93;95664.97;4994386;28;20206;-92
2022/11/17 12:25:11;;;;;;;5.13;2.50;;;;;;;21.36;52.87;95660.72;5010413;28;20219;-91
2022/11/17 12:27:38;;;;;;;4.97;2.40;;;;;;;21.35;53.03;95667.53;5016147;28;20183;-91